sensor_id;sensor_type;location;lat;lon;timestamp;temperature;humidity
40848;DHT22;26570;50.962;5.340;2023-01-16T01:03:40;6.20;99.90
40848;DHT22;26570;50.962;5.340;2023-01-16T01:06:26;6.10;99.90
40848;DHT22;26570;50.962;5.340;2023-01-16T01:09:11;6.10;99.90
40848;DHT22;26570;50.962;5.340;2023-01-16T01:12:00;6.10;99.90
40848;DHT22;26570;50.962;5.340;2023-01-16T01:14:45;6.20;99.90
40848;DHT22;26570;50.962;5.340;2023-01-16T01:17:31;6.30;99.90
40848;DHT22;26570;50.962;5.340;2023-01-16T01:20:17;6.10;99.90
40848;DHT22;26570;50.962;5.340;2023-01-16T01:23:03;6.10;99.90
40848;DHT22;26570;50.962;5.340;2023-01-16T01:25:49;6.20;99.90
40848;DHT22;26570;50.962;5.340;2023-01-16T01:28:34;6.00;99.90
40848;DHT22;26570;50.962;5.340;2023-01-16T01:31:20;6.00;99.90
40848;DHT22;26570;50.962;5.340;2023-01-16T01:34:06;5.80;99.90
40848;DHT22;26570;50.962;5.340;2023-01-16T01:36:53;5.90;99.90
40848;DHT22;26570;50.962;5.340;2023-01-16T01:39:38;6.00;99.90
40848;DHT22;26570;50.962;5.340;2023-01-16T01:42:23;6.00;99.90
40848;DHT22;26570;50.962;5.340;2023-01-16T01:45:30;6.00;99.90
40848;DHT22;26570;50.962;5.340;2023-01-16T01:48:26;6.00;99.90
40848;DHT22;26570;50.962;5.340;2023-01-16T01:51:28;5.90;99.90
40848;DHT22;26570;50.962;5.340;2023-01-16T01:54:21;5.80;99.90
40848;DHT22;26570;50.962;5.340;2023-01-16T01:57:34;5.80;99.90
40848;DHT22;26570;50.962;5.340;2023-01-16T02:00:43;5.90;99.90
40848;DHT22;26570;50.962;5.340;2023-01-16T02:03:34;6.20;99.90
40848;DHT22;26570;50.962;5.340;2023-01-16T02:06:47;6.20;99.90
40848;DHT22;26570;50.962;5.340;2023-01-16T02:09:34;6.10;99.90
40848;DHT22;26570;50.962;5.340;2023-01-16T02:12:21;6.00;99.90
40848;DHT22;26570;50.962;5.340;2023-01-16T02:15:07;6.10;99.90
40848;DHT22;26570;50.962;5.340;2023-01-16T02:18:15;6.10;99.90
40848;DHT22;26570;50.962;5.340;2023-01-16T02:31:10;6.10;99.90
40848;DHT22;26570;50.962;5.340;2023-01-16T02:34:49;6.20;99.90
40848;DHT22;26570;50.962;5.340;2023-01-16T02:37:44;6.10;99.90
40848;DHT22;26570;50.962;5.340;2023-01-16T02:49:53;6.30;99.90
40848;DHT22;26570;50.962;5.340;2023-01-16T02:52:59;6.30;99.90
40848;DHT22;26570;50.962;5.340;2023-01-16T02:56:24;6.10;99.90
40848;DHT22;26570;50.962;5.340;2023-01-16T02:59:13;6.00;99.90
40848;DHT22;26570;50.962;5.340;2023-01-16T03:02:00;6.10;99.90
40848;DHT22;26570;50.962;5.340;2023-01-16T03:04:51;6.20;99.90
40848;DHT22;26570;50.962;5.340;2023-01-16T03:11:12;6.10;99.90
40848;DHT22;26570;50.962;5.340;2023-01-16T03:21:12;6.10;99.90
40848;DHT22;26570;50.962;5.340;2023-01-16T03:27:27;6.10;99.90
40848;DHT22;26570;50.962;5.340;2023-01-16T03:30:37;6.10;99.90
40848;DHT22;26570;50.962;5.340;2023-01-16T03:39:42;6.50;99.90
40848;DHT22;26570;50.962;5.340;2023-01-16T03:45:38;6.20;99.90
40848;DHT22;26570;50.962;5.340;2023-01-16T03:48:48;6.20;99.90
40848;DHT22;26570;50.962;5.340;2023-01-16T03:51:46;6.30;99.90
40848;DHT22;26570;50.962;5.340;2023-01-16T03:54:50;6.40;99.90
40848;DHT22;26570;50.962;5.340;2023-01-16T03:58:18;6.40;99.90
40848;DHT22;26570;50.962;5.340;2023-01-16T04:04:00;6.40;99.90
40848;DHT22;26570;50.962;5.340;2023-01-16T04:09:56;6.40;99.90
40848;DHT22;26570;50.962;5.340;2023-01-16T04:13:19;6.40;99.90
40848;DHT22;26570;50.962;5.340;2023-01-16T04:16:09;6.40;99.90
40848;DHT22;26570;50.962;5.340;2023-01-16T04:19:19;6.60;99.90
40848;DHT22;26570;50.962;5.340;2023-01-16T04:22:07;6.60;99.90
40848;DHT22;26570;50.962;5.340;2023-01-16T04:24:55;6.70;99.90
40848;DHT22;26570;50.962;5.340;2023-01-16T04:27:41;6.70;99.90
40848;DHT22;26570;50.962;5.340;2023-01-16T04:30:27;6.70;99.90
40848;DHT22;26570;50.962;5.340;2023-01-16T04:33:35;6.60;99.90
40848;DHT22;26570;50.962;5.340;2023-01-16T04:36:24;6.70;99.90
40848;DHT22;26570;50.962;5.340;2023-01-16T04:39:09;6.60;99.90
40848;DHT22;26570;50.962;5.340;2023-01-16T04:41:54;6.70;99.90
40848;DHT22;26570;50.962;5.340;2023-01-16T04:44:41;6.70;99.90
40848;DHT22;26570;50.962;5.340;2023-01-16T04:47:27;6.70;99.90
40848;DHT22;26570;50.962;5.340;2023-01-16T04:50:13;6.70;99.90
40848;DHT22;26570;50.962;5.340;2023-01-16T04:52:59;6.80;99.90
40848;DHT22;26570;50.962;5.340;2023-01-16T04:55:44;6.80;99.90
40848;DHT22;26570;50.962;5.340;2023-01-16T04:58:30;6.70;99.90
40848;DHT22;26570;50.962;5.340;2023-01-16T05:01:17;6.70;99.90
40848;DHT22;26570;50.962;5.340;2023-01-16T05:04:04;7.00;99.90
40848;DHT22;26570;50.962;5.340;2023-01-16T05:07:12;6.90;99.90
40848;DHT22;26570;50.962;5.340;2023-01-16T05:09:58;7.00;99.90
40848;DHT22;26570;50.962;5.340;2023-01-16T05:12:44;6.90;99.90
40848;DHT22;26570;50.962;5.340;2023-01-16T05:15:30;6.90;99.90
40848;DHT22;26570;50.962;5.340;2023-01-16T05:18:21;6.90;99.90
40848;DHT22;26570;50.962;5.340;2023-01-16T05:21:31;6.90;99.90
40848;DHT22;26570;50.962;5.340;2023-01-16T05:24:16;6.80;99.90
40848;DHT22;26570;50.962;5.340;2023-01-16T05:27:03;6.90;99.90
40848;DHT22;26570;50.962;5.340;2023-01-16T05:29:48;6.90;99.90
40848;DHT22;26570;50.962;5.340;2023-01-16T05:32:34;6.90;99.90
40848;DHT22;26570;50.962;5.340;2023-01-16T05:35:20;6.90;99.90
40848;DHT22;26570;50.962;5.340;2023-01-16T05:38:05;6.90;99.90
40848;DHT22;26570;50.962;5.340;2023-01-16T05:41:13;7.00;99.90
40848;DHT22;26570;50.962;5.340;2023-01-16T05:44:22;7.00;99.90
40848;DHT22;26570;50.962;5.340;2023-01-16T05:47:08;7.00;99.90
40848;DHT22;26570;50.962;5.340;2023-01-16T05:49:53;6.90;99.90
40848;DHT22;26570;50.962;5.340;2023-01-16T05:52:38;7.10;99.90
40848;DHT22;26570;50.962;5.340;2023-01-16T05:55:23;7.00;99.90
40848;DHT22;26570;50.962;5.340;2023-01-16T05:58:10;7.00;99.90
40848;DHT22;26570;50.962;5.340;2023-01-16T06:00:56;7.10;99.90
40848;DHT22;26570;50.962;5.340;2023-01-16T06:04:04;7.10;99.90
40848;DHT22;26570;50.962;5.340;2023-01-16T06:06:50;7.10;99.90
40848;DHT22;26570;50.962;5.340;2023-01-16T06:09:58;7.20;99.90
40848;DHT22;26570;50.962;5.340;2023-01-16T06:12:44;7.10;99.90
40848;DHT22;26570;50.962;5.340;2023-01-16T06:15:30;7.10;99.90
40848;DHT22;26570;50.962;5.340;2023-01-16T06:18:15;7.10;99.90
40848;DHT22;26570;50.962;5.340;2023-01-16T06:21:02;7.00;99.90
40848;DHT22;26570;50.962;5.340;2023-01-16T06:23:48;6.90;99.90
40848;DHT22;26570;50.962;5.340;2023-01-16T06:26:33;6.80;99.90
40848;DHT22;26570;50.962;5.340;2023-01-16T06:29:18;6.70;99.90
40848;DHT22;26570;50.962;5.340;2023-01-16T06:32:03;6.60;99.90
40848;DHT22;26570;50.962;5.340;2023-01-16T06:34:48;6.60;99.90
40848;DHT22;26570;50.962;5.340;2023-01-16T06:37:34;6.60;99.90
40848;DHT22;26570;50.962;5.340;2023-01-16T06:40:19;6.70;99.90
40848;DHT22;26570;50.962;5.340;2023-01-16T06:43:27;6.60;99.90
40848;DHT22;26570;50.962;5.340;2023-01-16T06:46:36;6.50;99.90
40848;DHT22;26570;50.962;5.340;2023-01-16T06:49:21;6.60;99.90
40848;DHT22;26570;50.962;5.340;2023-01-16T06:52:06;6.50;99.90
40848;DHT22;26570;50.962;5.340;2023-01-16T06:54:52;6.60;99.90
40848;DHT22;26570;50.962;5.340;2023-01-16T06:57:38;6.60;99.90
40848;DHT22;26570;50.962;5.340;2023-01-16T07:00:24;6.70;99.90
40848;DHT22;26570;50.962;5.340;2023-01-16T07:03:11;6.70;99.90
40848;DHT22;26570;50.962;5.340;2023-01-16T07:05:58;6.50;99.90
40848;DHT22;26570;50.962;5.340;2023-01-16T07:08:45;6.60;99.90
40848;DHT22;26570;50.962;5.340;2023-01-16T07:11:32;6.60;99.90
40848;DHT22;26570;50.962;5.340;2023-01-16T07:14:44;6.50;99.90
40848;DHT22;26570;50.962;5.340;2023-01-16T07:17:52;6.50;99.90
40848;DHT22;26570;50.962;5.340;2023-01-16T07:21:01;6.60;99.90
40848;DHT22;26570;50.962;5.340;2023-01-16T07:24:10;6.50;99.90
40848;DHT22;26570;50.962;5.340;2023-01-16T07:27:00;6.40;99.90
40848;DHT22;26570;50.962;5.340;2023-01-16T07:30:00;6.40;99.90
40848;DHT22;26570;50.962;5.340;2023-01-16T07:32:53;6.50;99.90
40848;DHT22;26570;50.962;5.340;2023-01-16T07:36:03;6.50;99.90
40848;DHT22;26570;50.962;5.340;2023-01-16T07:38:49;6.60;99.90
40848;DHT22;26570;50.962;5.340;2023-01-16T07:41:34;6.60;99.90
40848;DHT22;26570;50.962;5.340;2023-01-16T07:44:19;6.50;99.90
40848;DHT22;26570;50.962;5.340;2023-01-16T07:47:05;6.50;99.90
40848;DHT22;26570;50.962;5.340;2023-01-16T07:50:15;6.60;99.90
40848;DHT22;26570;50.962;5.340;2023-01-16T07:53:00;6.60;99.90
40848;DHT22;26570;50.962;5.340;2023-01-16T07:55:47;6.60;99.90
40848;DHT22;26570;50.962;5.340;2023-01-16T07:58:31;6.50;99.90
40848;DHT22;26570;50.962;5.340;2023-01-16T08:01:17;6.60;99.90
40848;DHT22;26570;50.962;5.340;2023-01-16T08:04:02;6.50;99.90
40848;DHT22;26570;50.962;5.340;2023-01-16T08:06:47;6.40;99.90
40848;DHT22;26570;50.962;5.340;2023-01-16T08:09:32;6.30;99.90
40848;DHT22;26570;50.962;5.340;2023-01-16T08:12:16;6.30;99.90
40848;DHT22;26570;50.962;5.340;2023-01-16T08:15:02;6.30;99.90
40848;DHT22;26570;50.962;5.340;2023-01-16T08:17:47;6.30;99.90
40848;DHT22;26570;50.962;5.340;2023-01-16T08:20:33;6.30;99.90
40848;DHT22;26570;50.962;5.340;2023-01-16T08:23:18;6.20;99.90
40848;DHT22;26570;50.962;5.340;2023-01-16T08:26:03;6.20;99.90
40848;DHT22;26570;50.962;5.340;2023-01-16T08:28:51;6.20;99.90
40848;DHT22;26570;50.962;5.340;2023-01-16T08:31:37;6.20;99.90
40848;DHT22;26570;50.962;5.340;2023-01-16T08:34:22;6.20;99.90
40848;DHT22;26570;50.962;5.340;2023-01-16T08:37:07;5.70;99.90
40848;DHT22;26570;50.962;5.340;2023-01-16T08:39:54;6.30;99.90
40848;DHT22;26570;50.962;5.340;2023-01-16T08:42:39;6.30;99.90
40848;DHT22;26570;50.962;5.340;2023-01-16T08:45:43;6.20;99.90
40848;DHT22;26570;50.962;5.340;2023-01-16T08:48:47;6.10;99.90
40848;DHT22;26570;50.962;5.340;2023-01-16T08:51:51;6.20;99.90
40848;DHT22;26570;50.962;5.340;2023-01-16T08:54:36;6.30;99.90
40848;DHT22;26570;50.962;5.340;2023-01-16T08:57:21;6.30;99.90
40848;DHT22;26570;50.962;5.340;2023-01-16T09:00:07;6.40;99.90
40848;DHT22;26570;50.962;5.340;2023-01-16T09:02:55;6.40;99.90
40848;DHT22;26570;50.962;5.340;2023-01-16T09:05:44;6.40;99.90
40848;DHT22;26570;50.962;5.340;2023-01-16T09:08:32;6.40;99.90
40848;DHT22;26570;50.962;5.340;2023-01-16T09:11:20;6.30;99.90
40848;DHT22;26570;50.962;5.340;2023-01-16T09:14:23;7.00;99.90
40848;DHT22;26570;50.962;5.340;2023-01-16T09:17:09;6.40;99.90
40848;DHT22;26570;50.962;5.340;2023-01-16T09:19:54;6.30;99.90
40848;DHT22;26570;50.962;5.340;2023-01-16T09:22:39;6.50;99.90
40848;DHT22;26570;50.962;5.340;2023-01-16T09:25:30;6.50;99.90
40848;DHT22;26570;50.962;5.340;2023-01-16T09:28:22;6.50;99.90
40848;DHT22;26570;50.962;5.340;2023-01-16T09:31:10;6.60;99.90
40848;DHT22;26570;50.962;5.340;2023-01-16T09:33:55;6.50;99.90
40848;DHT22;26570;50.962;5.340;2023-01-16T09:36:40;6.60;99.90
40848;DHT22;26570;50.962;5.340;2023-01-16T09:39:26;6.60;99.90
40848;DHT22;26570;50.962;5.340;2023-01-16T09:42:16;6.60;99.90
40848;DHT22;26570;50.962;5.340;2023-01-16T09:45:30;6.70;99.90
40848;DHT22;26570;50.962;5.340;2023-01-16T09:48:29;6.70;99.90
40848;DHT22;26570;50.962;5.340;2023-01-16T09:51:42;6.90;99.90
40848;DHT22;26570;50.962;5.340;2023-01-16T09:54:56;7.10;99.90
40848;DHT22;26570;50.962;5.340;2023-01-16T09:58:03;7.40;99.90
40848;DHT22;26570;50.962;5.340;2023-01-16T10:01:33;7.50;99.90
40848;DHT22;26570;50.962;5.340;2023-01-16T10:04:21;7.50;99.90
40848;DHT22;26570;50.962;5.340;2023-01-16T10:13:36;7.90;99.90
40848;DHT22;26570;50.962;5.340;2023-01-16T10:16:32;8.00;99.90
40848;DHT22;26570;50.962;5.340;2023-01-16T10:19:39;8.00;99.90
40848;DHT22;26570;50.962;5.340;2023-01-16T10:25:31;7.90;99.90
40848;DHT22;26570;50.962;5.340;2023-01-16T10:31:38;7.80;99.90
40848;DHT22;26570;50.962;5.340;2023-01-16T10:34:54;7.90;99.90
40848;DHT22;26570;50.962;5.340;2023-01-16T10:45:33;8.20;99.90
40848;DHT22;26570;50.962;5.340;2023-01-16T10:48:46;8.10;99.90
40848;DHT22;26570;50.962;5.340;2023-01-16T10:52:11;8.20;99.90
40848;DHT22;26570;50.962;5.340;2023-01-16T10:55:08;8.10;99.90
40848;DHT22;26570;50.962;5.340;2023-01-16T11:01:14;8.30;99.90
40848;DHT22;26570;50.962;5.340;2023-01-16T11:04:01;8.40;99.90
40848;DHT22;26570;50.962;5.340;2023-01-16T11:07:47;8.70;99.90
40848;DHT22;26570;50.962;5.340;2023-01-16T11:10:46;8.20;99.90
40848;DHT22;26570;50.962;5.340;2023-01-16T11:14:35;8.20;99.90
40848;DHT22;26570;50.962;5.340;2023-01-16T11:21:32;8.00;99.90
40848;DHT22;26570;50.962;5.340;2023-01-16T11:24:32;8.10;99.90
40848;DHT22;26570;50.962;5.340;2023-01-16T11:27:36;8.10;99.90
40848;DHT22;26570;50.962;5.340;2023-01-16T11:30:53;8.20;99.90
40848;DHT22;26570;50.962;5.340;2023-01-16T11:34:03;8.10;99.90
40848;DHT22;26570;50.962;5.340;2023-01-16T11:36:58;8.20;99.90
40848;DHT22;26570;50.962;5.340;2023-01-16T11:39:54;8.20;99.90
40848;DHT22;26570;50.962;5.340;2023-01-16T11:43:12;8.40;99.90
40848;DHT22;26570;50.962;5.340;2023-01-16T11:46:49;8.10;99.90
40848;DHT22;26570;50.962;5.340;2023-01-16T11:49:52;8.20;99.90
40848;DHT22;26570;50.962;5.340;2023-01-16T11:52:56;8.20;99.90
40848;DHT22;26570;50.962;5.340;2023-01-16T12:06:43;8.50;99.90
40848;DHT22;26570;50.962;5.340;2023-01-16T12:12:59;8.40;99.90
40848;DHT22;26570;50.962;5.340;2023-01-16T12:29:12;8.80;99.90
40848;DHT22;26570;50.962;5.340;2023-01-16T12:35:43;8.60;99.90
40848;DHT22;26570;50.962;5.340;2023-01-16T12:38:52;8.50;99.90
40848;DHT22;26570;50.962;5.340;2023-01-16T12:52:08;8.30;99.90
40848;DHT22;26570;50.962;5.340;2023-01-16T12:58:20;8.10;99.90
40848;DHT22;26570;50.962;5.340;2023-01-16T13:01:40;8.10;99.90
40848;DHT22;26570;50.962;5.340;2023-01-16T13:04:34;8.10;99.90
40848;DHT22;26570;50.962;5.340;2023-01-16T13:07:52;8.10;99.90
40848;DHT22;26570;50.962;5.340;2023-01-16T13:10:42;8.20;99.90
40848;DHT22;26570;50.962;5.340;2023-01-16T13:14:06;7.80;99.90
40848;DHT22;26570;50.962;5.340;2023-01-16T13:17:19;8.40;99.90
40848;DHT22;26570;50.962;5.340;2023-01-16T13:20:11;8.30;99.90
40848;DHT22;26570;50.962;5.340;2023-01-16T13:23:25;8.40;99.90
40848;DHT22;26570;50.962;5.340;2023-01-16T13:26:16;8.50;99.90
40848;DHT22;26570;50.962;5.340;2023-01-16T13:29:20;8.60;99.90
40848;DHT22;26570;50.962;5.340;2023-01-16T13:39:03;8.50;99.90
40848;DHT22;26570;50.962;5.340;2023-01-16T13:42:08;8.50;99.90
40848;DHT22;26570;50.962;5.340;2023-01-16T13:45:31;8.40;99.90
40848;DHT22;26570;50.962;5.340;2023-01-16T13:48:35;8.60;99.90
40848;DHT22;26570;50.962;5.340;2023-01-16T13:55:05;8.40;99.90
40848;DHT22;26570;50.962;5.340;2023-01-16T13:58:20;8.40;99.90
40848;DHT22;26570;50.962;5.340;2023-01-16T14:01:08;8.30;99.90
40848;DHT22;26570;50.962;5.340;2023-01-16T14:15:18;8.10;99.90
40848;DHT22;26570;50.962;5.340;2023-01-16T14:18:36;8.10;99.90
40848;DHT22;26570;50.962;5.340;2023-01-16T14:21:44;8.10;99.90
40848;DHT22;26570;50.962;5.340;2023-01-16T14:25:33;8.00;99.90
40848;DHT22;26570;50.962;5.340;2023-01-16T14:28:26;8.10;99.90
40848;DHT22;26570;50.962;5.340;2023-01-16T14:31:35;8.00;99.90
40848;DHT22;26570;50.962;5.340;2023-01-16T14:34:37;7.90;99.90
40848;DHT22;26570;50.962;5.340;2023-01-16T14:37:39;8.00;99.90
40848;DHT22;26570;50.962;5.340;2023-01-16T14:40:33;7.90;99.90
40848;DHT22;26570;50.962;5.340;2023-01-16T14:47:24;7.90;99.90
40848;DHT22;26570;50.962;5.340;2023-01-16T14:57:30;7.80;99.90
40848;DHT22;26570;50.962;5.340;2023-01-16T15:00:20;7.70;99.90
40848;DHT22;26570;50.962;5.340;2023-01-16T15:03:28;7.80;99.90
40848;DHT22;26570;50.962;5.340;2023-01-16T15:06:23;7.70;99.90
40848;DHT22;26570;50.962;5.340;2023-01-16T15:09:17;7.70;99.90
40848;DHT22;26570;50.962;5.340;2023-01-16T15:12:15;7.50;99.90
40848;DHT22;26570;50.962;5.340;2023-01-16T15:15:28;7.50;99.90
40848;DHT22;26570;50.962;5.340;2023-01-16T15:18:15;7.50;99.90
40848;DHT22;26570;50.962;5.340;2023-01-16T15:21:28;7.60;99.90
40848;DHT22;26570;50.962;5.340;2023-01-16T15:32:14;7.60;99.90
40848;DHT22;26570;50.962;5.340;2023-01-16T15:35:13;7.60;99.90
40848;DHT22;26570;50.962;5.340;2023-01-16T15:38:14;7.70;99.90
40848;DHT22;26570;50.962;5.340;2023-01-16T15:41:13;7.50;99.90
40848;DHT22;26570;50.962;5.340;2023-01-16T15:44:14;7.50;99.90
40848;DHT22;26570;50.962;5.340;2023-01-16T15:50:56;7.60;99.90
40848;DHT22;26570;50.962;5.340;2023-01-16T15:54:10;7.60;99.90
40848;DHT22;26570;50.962;5.340;2023-01-16T15:57:16;7.60;99.90
40848;DHT22;26570;50.962;5.340;2023-01-16T16:00:03;7.40;99.90
40848;DHT22;26570;50.962;5.340;2023-01-16T16:02:52;7.50;99.90
40848;DHT22;26570;50.962;5.340;2023-01-16T16:06:07;7.50;99.90
40848;DHT22;26570;50.962;5.340;2023-01-16T16:08:54;7.90;99.90
40848;DHT22;26570;50.962;5.340;2023-01-16T16:11:44;7.50;99.90
40848;DHT22;26570;50.962;5.340;2023-01-16T16:15:14;7.50;99.90
40848;DHT22;26570;50.962;5.340;2023-01-16T16:18:20;7.70;99.90
40848;DHT22;26570;50.962;5.340;2023-01-16T16:21:13;7.80;99.90
40848;DHT22;26570;50.962;5.340;2023-01-16T16:24:03;7.60;99.90
40848;DHT22;26570;50.962;5.340;2023-01-16T16:26:49;7.60;99.90
40848;DHT22;26570;50.962;5.340;2023-01-16T16:29:36;7.50;99.90
40848;DHT22;26570;50.962;5.340;2023-01-16T16:32:45;7.50;99.90
40848;DHT22;26570;50.962;5.340;2023-01-16T16:38:25;7.40;99.90
40848;DHT22;26570;50.962;5.340;2023-01-16T16:44:07;7.50;99.90
40848;DHT22;26570;50.962;5.340;2023-01-16T16:46:56;7.30;99.90
40848;DHT22;26570;50.962;5.340;2023-01-16T16:49:42;7.50;99.90
40848;DHT22;26570;50.962;5.340;2023-01-16T16:52:29;7.50;99.90
40848;DHT22;26570;50.962;5.340;2023-01-16T16:55:40;7.70;99.90
40848;DHT22;26570;50.962;5.340;2023-01-16T16:58:27;7.80;99.90
40848;DHT22;26570;50.962;5.340;2023-01-16T17:01:15;7.80;99.90
40848;DHT22;26570;50.962;5.340;2023-01-16T17:04:05;7.80;99.90
40848;DHT22;26570;50.962;5.340;2023-01-16T17:06:51;7.40;99.90
40848;DHT22;26570;50.962;5.340;2023-01-16T17:09:37;7.30;99.90
40848;DHT22;26570;50.962;5.340;2023-01-16T17:12:23;6.80;99.90
40848;DHT22;26570;50.962;5.340;2023-01-16T17:15:10;6.60;99.90
40848;DHT22;26570;50.962;5.340;2023-01-16T17:17:58;6.40;99.90
40848;DHT22;26570;50.962;5.340;2023-01-16T17:20:44;6.60;99.90
40848;DHT22;26570;50.962;5.340;2023-01-16T17:23:31;6.30;99.90
40848;DHT22;26570;50.962;5.340;2023-01-16T17:26:16;6.10;99.90
40848;DHT22;26570;50.962;5.340;2023-01-16T17:29:03;6.00;99.90
40848;DHT22;26570;50.962;5.340;2023-01-16T17:31:49;5.80;99.90
40848;DHT22;26570;50.962;5.340;2023-01-16T17:34:37;5.70;99.90
40848;DHT22;26570;50.962;5.340;2023-01-16T17:37:22;5.50;99.90
40848;DHT22;26570;50.962;5.340;2023-01-16T17:40:10;5.20;99.90
40848;DHT22;26570;50.962;5.340;2023-01-16T17:42:57;5.10;99.90
40848;DHT22;26570;50.962;5.340;2023-01-16T17:46:09;5.00;99.90
40848;DHT22;26570;50.962;5.340;2023-01-16T17:48:57;4.80;99.90
40848;DHT22;26570;50.962;5.340;2023-01-16T17:51:43;4.90;99.90
40848;DHT22;26570;50.962;5.340;2023-01-16T17:54:28;5.00;99.90
40848;DHT22;26570;50.962;5.340;2023-01-16T17:57:34;5.00;99.90
40848;DHT22;26570;50.962;5.340;2023-01-16T18:00:19;5.00;99.90
40848;DHT22;26570;50.962;5.340;2023-01-16T18:03:05;4.90;99.90
40848;DHT22;26570;50.962;5.340;2023-01-16T18:05:52;4.60;99.90
40848;DHT22;26570;50.962;5.340;2023-01-16T18:08:38;4.60;99.90
40848;DHT22;26570;50.962;5.340;2023-01-16T18:11:24;4.60;99.90
40848;DHT22;26570;50.962;5.340;2023-01-16T18:14:29;4.80;99.90
40848;DHT22;26570;50.962;5.340;2023-01-16T18:17:33;4.90;99.90
40848;DHT22;26570;50.962;5.340;2023-01-16T18:20:19;5.00;99.90
40848;DHT22;26570;50.962;5.340;2023-01-16T18:23:05;5.00;99.90
40848;DHT22;26570;50.962;5.340;2023-01-16T18:25:51;5.00;99.90
40848;DHT22;26570;50.962;5.340;2023-01-16T18:28:37;5.10;99.90
40848;DHT22;26570;50.962;5.340;2023-01-16T18:31:24;5.10;99.90
40848;DHT22;26570;50.962;5.340;2023-01-16T18:34:10;5.20;99.90
40848;DHT22;26570;50.962;5.340;2023-01-16T18:36:56;5.30;99.90
40848;DHT22;26570;50.962;5.340;2023-01-16T18:39:43;5.40;99.90
40848;DHT22;26570;50.962;5.340;2023-01-16T18:45:26;5.30;99.90
40848;DHT22;26570;50.962;5.340;2023-01-16T18:48:31;5.30;99.90
40848;DHT22;26570;50.962;5.340;2023-01-16T18:51:35;5.30;99.90
40848;DHT22;26570;50.962;5.340;2023-01-16T18:54:39;4.30;99.90
40848;DHT22;26570;50.962;5.340;2023-01-16T18:57:44;5.10;99.90
40848;DHT22;26570;50.962;5.340;2023-01-16T19:00:47;5.10;99.90
40848;DHT22;26570;50.962;5.340;2023-01-16T19:03:52;5.20;99.90
40848;DHT22;26570;50.962;5.340;2023-01-16T19:06:38;5.10;99.90
40848;DHT22;26570;50.962;5.340;2023-01-16T19:09:27;5.20;99.90
40848;DHT22;26570;50.962;5.340;2023-01-16T19:12:13;5.00;99.90
40848;DHT22;26570;50.962;5.340;2023-01-16T19:14:59;5.10;99.90
40848;DHT22;26570;50.962;5.340;2023-01-16T19:17:46;5.20;99.90
40848;DHT22;26570;50.962;5.340;2023-01-16T19:20:33;5.20;99.90
40848;DHT22;26570;50.962;5.340;2023-01-16T19:23:19;5.40;99.90
40848;DHT22;26570;50.962;5.340;2023-01-16T19:26:05;5.30;99.90
40848;DHT22;26570;50.962;5.340;2023-01-16T19:28:53;5.30;99.90
40848;DHT22;26570;50.962;5.340;2023-01-16T19:31:39;5.30;99.90
40848;DHT22;26570;50.962;5.340;2023-01-16T19:34:26;5.30;99.90
40848;DHT22;26570;50.962;5.340;2023-01-16T19:37:12;5.40;99.90
40848;DHT22;26570;50.962;5.340;2023-01-16T19:39:58;5.40;99.90
40848;DHT22;26570;50.962;5.340;2023-01-16T19:45:37;5.40;99.90
40848;DHT22;26570;50.962;5.340;2023-01-16T19:48:41;5.40;99.90
40848;DHT22;26570;50.962;5.340;2023-01-16T19:51:28;5.40;99.90
40848;DHT22;26570;50.962;5.340;2023-01-16T19:54:15;5.20;99.90
40848;DHT22;26570;50.962;5.340;2023-01-16T19:57:01;5.10;99.90
40848;DHT22;26570;50.962;5.340;2023-01-16T19:59:47;5.00;99.90
40848;DHT22;26570;50.962;5.340;2023-01-16T20:02:34;5.10;99.90
40848;DHT22;26570;50.962;5.340;2023-01-16T20:05:25;5.00;99.90
40848;DHT22;26570;50.962;5.340;2023-01-16T20:08:12;5.00;99.90
40848;DHT22;26570;50.962;5.340;2023-01-16T20:10:59;4.90;99.90
40848;DHT22;26570;50.962;5.340;2023-01-16T20:13:46;4.90;99.90
40848;DHT22;26570;50.962;5.340;2023-01-16T20:16:32;5.00;99.90
40848;DHT22;26570;50.962;5.340;2023-01-16T20:19:18;5.00;99.90
40848;DHT22;26570;50.962;5.340;2023-01-16T20:22:06;4.80;99.90
40848;DHT22;26570;50.962;5.340;2023-01-16T20:24:53;4.50;99.90
40848;DHT22;26570;50.962;5.340;2023-01-16T20:27:42;4.90;99.90
40848;DHT22;26570;50.962;5.340;2023-01-16T20:30:28;4.90;99.90
40848;DHT22;26570;50.962;5.340;2023-01-16T20:33:42;5.00;99.90
40848;DHT22;26570;50.962;5.340;2023-01-16T20:36:29;5.00;99.90
40848;DHT22;26570;50.962;5.340;2023-01-16T20:39:17;4.80;99.90
40848;DHT22;26570;50.962;5.340;2023-01-16T20:42:03;4.80;99.90
40848;DHT22;26570;50.962;5.340;2023-01-16T20:45:08;4.90;99.90
40848;DHT22;26570;50.962;5.340;2023-01-16T20:48:13;4.90;99.90
40848;DHT22;26570;50.962;5.340;2023-01-16T20:51:03;4.90;99.90
40848;DHT22;26570;50.962;5.340;2023-01-16T20:53:53;4.90;99.90
40848;DHT22;26570;50.962;5.340;2023-01-16T20:56:39;4.90;99.90
40848;DHT22;26570;50.962;5.340;2023-01-16T20:59:26;4.80;99.90
40848;DHT22;26570;50.962;5.340;2023-01-16T21:02:12;4.80;99.90
40848;DHT22;26570;50.962;5.340;2023-01-16T21:04:58;4.80;99.90
40848;DHT22;26570;50.962;5.340;2023-01-16T21:07:45;4.80;99.90
40848;DHT22;26570;50.962;5.340;2023-01-16T21:10:32;4.80;99.90
40848;DHT22;26570;50.962;5.340;2023-01-16T21:13:19;4.80;99.90
40848;DHT22;26570;50.962;5.340;2023-01-16T21:16:23;4.90;99.90
40848;DHT22;26570;50.962;5.340;2023-01-16T21:19:28;4.90;99.90
40848;DHT22;26570;50.962;5.340;2023-01-16T21:22:34;4.80;99.90
40848;DHT22;26570;50.962;5.340;2023-01-16T21:25:21;4.70;99.90
40848;DHT22;26570;50.962;5.340;2023-01-16T21:28:07;4.40;99.90
40848;DHT22;26570;50.962;5.340;2023-01-16T21:30:54;4.50;99.90
40848;DHT22;26570;50.962;5.340;2023-01-16T21:33:40;4.80;99.90
40848;DHT22;26570;50.962;5.340;2023-01-16T21:36:26;4.20;99.90
40848;DHT22;26570;50.962;5.340;2023-01-16T21:39:12;4.10;99.90
40848;DHT22;26570;50.962;5.340;2023-01-16T21:41:58;4.00;99.90
40848;DHT22;26570;50.962;5.340;2023-01-16T21:45:03;3.90;99.90
40848;DHT22;26570;50.962;5.340;2023-01-16T21:48:12;3.90;99.90
40848;DHT22;26570;50.962;5.340;2023-01-16T21:50:58;4.10;99.90
40848;DHT22;26570;50.962;5.340;2023-01-16T21:53:47;4.20;99.90
40848;DHT22;26570;50.962;5.340;2023-01-16T21:56:33;4.20;99.90
40848;DHT22;26570;50.962;5.340;2023-01-16T21:59:19;4.30;99.90
40848;DHT22;26570;50.962;5.340;2023-01-16T22:02:06;4.20;99.90
40848;DHT22;26570;50.962;5.340;2023-01-16T22:04:51;4.20;99.90
40848;DHT22;26570;50.962;5.340;2023-01-16T22:07:38;4.10;99.90
40848;DHT22;26570;50.962;5.340;2023-01-16T22:10:25;4.20;99.90
40848;DHT22;26570;50.962;5.340;2023-01-16T22:13:11;4.20;99.90
40848;DHT22;26570;50.962;5.340;2023-01-16T22:16:17;4.20;99.90
40848;DHT22;26570;50.962;5.340;2023-01-16T22:19:24;4.20;99.90
40848;DHT22;26570;50.962;5.340;2023-01-16T22:22:14;4.30;99.90
40848;DHT22;26570;50.962;5.340;2023-01-16T22:25:02;4.40;99.90
40848;DHT22;26570;50.962;5.340;2023-01-16T22:27:48;4.40;99.90
40848;DHT22;26570;50.962;5.340;2023-01-16T22:30:34;4.50;99.90
40848;DHT22;26570;50.962;5.340;2023-01-16T22:33:22;4.60;99.90
40848;DHT22;26570;50.962;5.340;2023-01-16T22:36:09;4.60;99.90